createdAt,value
2022-11-18T00:20:46.860Z,-2.21
2022-11-18T00:21:49.006Z,-2.26
2022-11-18T00:22:50.960Z,-2.17
2022-11-18T00:23:52.667Z,-2.20
2022-11-18T00:24:54.406Z,-2.13
2022-11-18T00:26:02.171Z,-2.05
2022-11-18T00:27:04.234Z,-1.98
2022-11-18T00:28:05.843Z,-1.92
2022-11-18T00:29:09.596Z,-1.84
2022-11-18T00:30:11.968Z,-1.78
2022-11-18T00:31:14.091Z,-1.70
2022-11-18T00:32:15.827Z,-1.65
2022-11-18T00:33:17.778Z,-1.59
2022-11-18T00:34:20.035Z,-1.60
2022-11-18T00:35:21.873Z,-1.65
2022-11-18T00:36:23.607Z,-1.57
2022-11-18T00:37:25.819Z,-1.57
2022-11-18T00:38:29.223Z,-1.48
2022-11-18T00:39:31.184Z,-1.43
2022-11-18T00:40:32.878Z,-1.38
2022-11-18T00:41:34.730Z,-1.27
2022-11-18T00:42:36.351Z,-1.31
2022-11-18T00:43:38.497Z,-1.26
2022-11-18T00:44:40.309Z,-1.19
2022-11-18T00:45:42.930Z,-1.25
2022-11-18T00:46:44.720Z,-1.15
2022-11-18T00:47:46.767Z,-1.13
2022-11-18T00:48:48.545Z,-1.15
2022-11-18T00:49:50.308Z,-1.10
2022-11-18T00:50:55.117Z,-1.06
2022-11-18T00:51:57.659Z,-1.11
2022-11-18T00:52:59.845Z,-1.27
2022-11-18T00:54:02.784Z,-1.27
2022-11-18T00:55:06.962Z,-1.29
2022-11-18T00:56:09.610Z,-1.23
2022-11-18T00:57:11.286Z,-1.18
2022-11-18T00:58:13.352Z,-1.06
2022-11-18T00:59:15.400Z,-0.97
2022-11-18T01:00:22.455Z,-0.82
2022-11-18T01:01:31.947Z,-0.83
2022-11-18T01:02:33.889Z,-1.05
2022-11-18T01:03:35.756Z,-1.10
2022-11-18T01:04:37.624Z,-1.05
2022-11-18T01:05:40.945Z,-1.04
2022-11-18T01:06:43.029Z,-1.10
2022-11-18T01:07:45.431Z,-1.20
2022-11-18T01:08:55.784Z,-1.20
2022-11-18T01:10:05.607Z,-1.15
2022-11-18T01:11:07.964Z,-1.17
2022-11-18T01:12:11.460Z,-1.09
2022-11-18T01:13:17.116Z,-1.03
2022-11-18T01:14:19.133Z,-1.01
2022-11-18T01:15:21.153Z,-0.94
2022-11-18T01:16:25.916Z,-0.90
2022-11-18T01:18:40.640Z,-0.86
2022-11-18T01:19:43.742Z,-1.13
2022-11-18T01:20:46.193Z,-1.18
2022-11-18T01:21:48.140Z,-1.20
2022-11-18T01:22:49.763Z,-1.15
2022-11-18T01:23:51.574Z,-1.16
2022-11-18T01:24:53.313Z,-1.27
2022-11-18T01:25:56.132Z,-1.21
2022-11-18T01:26:59.017Z,-1.17
2022-11-18T01:28:01.051Z,-1.20
2022-11-18T01:29:02.883Z,-1.13
2022-11-18T01:30:05.520Z,-1.01
2022-11-18T01:31:11.255Z,-0.92
2022-11-18T01:32:28.540Z,-0.82
2022-11-18T01:33:16.891Z,-0.74
2022-11-18T01:34:18.597Z,-0.65
2022-11-18T01:35:20.310Z,-0.58
2022-11-18T01:36:25.531Z,-0.50
2022-11-18T01:37:28.589Z,-0.43
2022-11-18T01:38:30.522Z,-0.37
2022-11-18T01:39:32.135Z,-0.35
2022-11-18T01:40:35.715Z,-0.34
2022-11-18T01:41:37.574Z,-0.35
2022-11-18T01:42:39.758Z,-0.36
2022-11-18T01:43:57.451Z,-0.34
2022-11-18T01:45:09.838Z,-0.33
2022-11-18T01:46:12.447Z,-0.53
2022-11-18T01:47:14.813Z,-0.53
2022-11-18T01:48:20.347Z,-0.62
2022-11-18T01:49:22.274Z,-0.60
2022-11-18T01:50:25.852Z,-0.52
2022-11-18T01:51:40.513Z,-0.45
2022-11-18T01:52:45.232Z,-0.44
2022-11-18T01:53:50.235Z,-0.38
2022-11-18T01:54:55.758Z,-0.29
2022-11-18T01:56:01.685Z,-0.30
2022-11-18T01:57:07.188Z,-0.30
2022-11-18T01:58:21.547Z,-0.30
2022-11-18T01:59:27.262Z,-0.39
2022-11-18T02:00:29.300Z,-0.42
2022-11-18T02:01:32.096Z,-0.56
2022-11-18T02:02:37.340Z,-0.60
2022-11-18T02:03:41.470Z,-0.59
2022-11-18T02:04:47.196Z,-0.67
2022-11-18T02:05:49.960Z,-0.61
2022-11-18T02:06:53.712Z,-0.53
2022-11-18T02:07:57.449Z,-0.47
2022-11-18T02:09:01.262Z,-0.41
2022-11-18T02:10:05.527Z,-0.44
2022-11-18T02:11:15.740Z,-0.47
2022-11-18T02:12:18.443Z,-0.46
2022-11-18T02:13:21.760Z,-0.47
2022-11-18T02:14:29.785Z,-0.46
2022-11-18T02:15:55.199Z,-0.49
2022-11-18T02:17:12.545Z,-0.47
2022-11-18T02:18:21.161Z,-0.37
2022-11-18T02:19:59.390Z,-0.47
2022-11-18T02:22:44.731Z,-0.28
2022-11-18T02:23:50.360Z,-0.43
2022-11-18T02:25:01.604Z,-0.34
2022-11-18T02:26:19.542Z,-0.36
2022-11-18T02:27:42.883Z,-0.40
2022-11-18T02:29:03.832Z,-0.62
2022-11-18T02:30:15.995Z,-0.52
2022-11-18T02:31:34.260Z,-0.54
2022-11-18T02:32:43.068Z,-0.47
2022-11-18T02:33:54.961Z,-0.43
2022-11-18T02:35:09.178Z,-0.36
2022-11-18T02:36:24.565Z,-0.29
2022-11-18T02:37:36.323Z,-0.28
2022-11-18T02:38:42.100Z,-0.19
2022-11-18T02:39:50.462Z,-0.26
2022-11-18T02:41:11.422Z,-0.27
2022-11-18T02:42:15.201Z,-0.27
2022-11-18T02:43:26.571Z,-0.19
2022-11-18T02:44:30.447Z,-0.24
2022-11-18T02:45:34.253Z,-0.24
2022-11-18T02:46:39.011Z,-0.28
2022-11-18T02:47:44.648Z,-0.38
2022-11-18T02:48:53.371Z,-0.47
2022-11-18T02:50:01.823Z,-0.41
2022-11-18T02:51:07.494Z,-0.34
2022-11-18T02:52:11.533Z,-0.49
2022-11-18T02:53:16.044Z,-0.53
2022-11-18T02:54:22.376Z,-0.53
2022-11-18T02:55:28.098Z,-0.46
2022-11-18T02:56:32.777Z,-0.37
2022-11-18T02:57:37.218Z,-0.35
2022-11-18T02:58:39.211Z,-0.40
2022-11-18T02:59:41.823Z,-0.62
2022-11-18T03:00:44.250Z,-0.56
2022-11-18T03:01:46.922Z,-0.56
2022-11-18T03:02:50.384Z,-0.73
2022-11-18T03:03:52.767Z,-0.62
2022-11-18T03:04:57.814Z,-0.57
2022-11-18T03:06:18.636Z,-0.62
2022-11-18T03:07:24.285Z,-0.73
2022-11-18T03:08:30.084Z,-0.67
2022-11-18T03:09:35.798Z,-0.61
2022-11-18T03:10:44.370Z,-0.61
2022-11-18T03:12:16.222Z,-0.52
2022-11-18T03:13:24.857Z,-0.43
2022-11-18T03:14:39.337Z,-0.36
2022-11-18T03:15:48.083Z,-0.23
2022-11-18T03:17:02.859Z,-0.23
2022-11-18T03:18:19.403Z,-0.22
2022-11-18T03:19:40.981Z,-0.18
2022-11-18T03:21:08.032Z,-0.23
2022-11-18T03:22:19.941Z,-0.30
2022-11-18T03:23:32.159Z,-0.34
2022-11-18T03:24:36.711Z,-0.37
2022-11-18T03:25:45.532Z,-0.30
2022-11-18T03:26:51.277Z,-0.27
2022-11-18T03:28:13.575Z,-0.26
2022-11-18T03:29:19.517Z,-0.30
2022-11-18T03:30:23.822Z,-0.24
2022-11-18T03:31:30.510Z,-0.14
2022-11-18T03:32:36.846Z,-0.08
2022-11-18T03:33:42.782Z,-0.02
2022-11-18T03:34:48.412Z,-0.03
2022-11-18T03:35:53.654Z,-0.02
2022-11-18T03:37:00.797Z,0.01
2022-11-18T03:38:06.791Z,0.04
2022-11-18T03:39:12.236Z,0.07
2022-11-18T03:40:24.922Z,0.06
2022-11-18T03:41:30.429Z,0.07
2022-11-18T03:42:42.434Z,0.08
2022-11-18T03:43:59.917Z,0.07
2022-11-18T03:45:08.911Z,-0.05
2022-11-18T03:46:14.480Z,-0.19
2022-11-18T03:47:22.918Z,-0.19
2022-11-18T03:48:34.259Z,-0.17
2022-11-18T03:49:45.583Z,-0.13
2022-11-18T03:50:51.795Z,-0.10
2022-11-18T03:51:57.280Z,-0.01
2022-11-18T03:53:01.801Z,0.01
2022-11-18T03:54:10.435Z,0.09
2022-11-18T03:55:15.922Z,0.15
2022-11-18T03:56:21.507Z,0.22
2022-11-18T03:57:26.972Z,0.29
2022-11-18T03:58:32.479Z,0.28
2022-11-18T03:59:47.081Z,0.09
2022-11-18T04:00:52.649Z,0.05
2022-11-18T04:02:03.886Z,0.06
2022-11-18T04:03:06.300Z,0.06
2022-11-18T04:04:09.479Z,0.11
2022-11-18T04:05:14.785Z,0.06
2022-11-18T04:06:26.139Z,0.04
2022-11-18T04:07:40.761Z,0.06
2022-11-18T04:08:45.218Z,0.07
2022-11-18T04:09:56.561Z,0.12
2022-11-18T04:11:08.408Z,0.19
2022-11-18T04:12:15.084Z,0.23
2022-11-18T04:13:26.341Z,0.24
2022-11-18T04:14:39.127Z,0.22
2022-11-18T04:15:42.236Z,0.26
2022-11-18T04:16:44.570Z,0.30
2022-11-18T04:17:46.446Z,0.35
2022-11-18T04:18:48.083Z,0.29
2022-11-18T04:19:49.916Z,0.34
2022-11-18T04:20:52.262Z,0.37
2022-11-18T04:21:54.063Z,0.40
2022-11-18T04:22:55.681Z,0.47
2022-11-18T04:23:57.301Z,0.46
2022-11-18T04:24:58.958Z,0.48
2022-11-18T04:26:00.704Z,0.52
2022-11-18T04:27:03.658Z,0.47
2022-11-18T04:28:06.309Z,0.48
2022-11-18T04:29:08.197Z,0.53
2022-11-18T04:30:11.135Z,0.61
2022-11-18T04:31:12.864Z,0.61
2022-11-18T04:32:14.578Z,0.63
2022-11-18T04:33:16.612Z,0.57
2022-11-18T04:34:18.504Z,0.58
2022-11-18T04:35:20.206Z,0.57
2022-11-18T04:36:22.515Z,0.45
2022-11-18T04:37:26.141Z,0.44
2022-11-18T04:38:28.047Z,0.47
2022-11-18T04:39:29.841Z,0.50
2022-11-18T04:40:31.564Z,0.47
2022-11-18T04:41:33.273Z,0.47
2022-11-18T04:42:35.428Z,0.48
2022-11-18T04:43:37.200Z,0.53
2022-11-18T04:44:39.132Z,0.52
2022-11-18T04:45:40.837Z,0.55
2022-11-18T04:46:44.806Z,0.61
2022-11-18T04:47:46.673Z,0.59
2022-11-18T04:48:48.456Z,0.48
2022-11-18T04:49:50.718Z,0.42
2022-11-18T04:50:52.994Z,0.43
2022-11-18T04:51:55.852Z,0.46
2022-11-18T04:52:57.930Z,0.51
2022-11-18T04:54:00.106Z,0.55
2022-11-18T04:55:02.267Z,0.60
2022-11-18T04:56:06.435Z,0.63
2022-11-18T04:57:08.563Z,0.67
2022-11-18T04:58:10.554Z,0.65
2022-11-18T04:59:13.838Z,0.67
2022-11-18T05:00:16.539Z,0.68
2022-11-18T05:01:18.426Z,0.61
2022-11-18T05:02:20.369Z,0.52
2022-11-18T05:03:22.036Z,0.53
2022-11-18T05:04:26.734Z,0.36
2022-11-18T05:05:28.531Z,0.26
2022-11-18T05:06:31.482Z,0.22
2022-11-18T05:07:33.327Z,0.19
2022-11-18T05:08:35.402Z,0.18
2022-11-18T05:09:37.014Z,0.17
2022-11-18T05:10:38.717Z,0.18
2022-11-18T05:11:40.574Z,0.10
2022-11-18T05:12:42.344Z,0.12
2022-11-18T05:13:44.521Z,0.18
2022-11-18T05:14:50.080Z,0.21
2022-11-18T05:15:50.039Z,0.23
2022-11-18T05:16:53.603Z,0.31
2022-11-18T05:17:55.533Z,0.37
2022-11-18T05:18:57.285Z,0.37
2022-11-18T05:19:59.002Z,0.46
2022-11-18T05:21:05.679Z,0.47
2022-11-18T05:22:07.573Z,0.51
2022-11-18T05:23:09.336Z,0.47
2022-11-18T05:24:11.533Z,0.52
2022-11-18T05:25:13.409Z,0.57
2022-11-18T05:26:15.589Z,0.58
2022-11-18T05:27:17.544Z,0.62
2022-11-18T05:28:19.146Z,0.67
2022-11-18T05:29:21.695Z,0.65
2022-11-18T05:30:23.464Z,0.63
2022-11-18T05:31:25.204Z,0.56
2022-11-18T05:32:27.019Z,0.51
2022-11-18T05:33:28.640Z,0.38
2022-11-18T05:34:30.364Z,0.24
2022-11-18T05:35:32.113Z,0.14
2022-11-18T05:36:34.358Z,0.15
2022-11-18T05:37:36.038Z,0.16
2022-11-18T05:38:37.846Z,0.17
2022-11-18T05:39:39.590Z,0.19
2022-11-18T05:40:44.531Z,0.22
2022-11-18T05:41:46.423Z,0.26
2022-11-18T05:42:48.271Z,0.31
2022-11-18T05:43:51.010Z,0.33
2022-11-18T05:44:57.776Z,0.35
2022-11-18T05:45:57.054Z,0.39
2022-11-18T05:46:59.399Z,0.46
2022-11-18T05:48:01.572Z,0.53
2022-11-18T05:49:04.876Z,0.48
2022-11-18T05:50:08.452Z,0.51
2022-11-18T05:51:10.158Z,0.53
2022-11-18T05:52:12.006Z,0.58
2022-11-18T05:53:14.241Z,0.55
2022-11-18T05:54:18.591Z,0.59
2022-11-18T05:55:23.799Z,0.63
2022-11-18T05:56:31.564Z,0.69
2022-11-18T05:57:33.285Z,0.78
2022-11-18T05:58:35.115Z,0.84
2022-11-18T05:59:36.819Z,0.89
2022-11-18T06:00:38.871Z,0.89
2022-11-18T06:01:47.218Z,0.92
2022-11-18T06:02:51.869Z,0.88
2022-11-18T06:03:54.474Z,0.83
2022-11-18T06:04:59.923Z,0.85
2022-11-18T06:06:04.251Z,0.85
2022-11-18T06:07:25.043Z,0.91
2022-11-18T06:08:31.624Z,0.90
2022-11-18T06:09:37.429Z,0.88
2022-11-18T06:10:43.546Z,0.88
2022-11-18T06:11:49.022Z,0.89
2022-11-18T06:12:54.219Z,0.92
2022-11-18T06:14:04.119Z,0.89
2022-11-18T06:15:10.994Z,0.88
2022-11-18T06:16:13.613Z,0.94
2022-11-18T06:17:19.259Z,0.97
2022-11-18T06:18:27.542Z,1.02
2022-11-18T06:19:31.783Z,1.06
2022-11-18T06:20:37.114Z,1.13
2022-11-18T06:21:39.157Z,1.19
2022-11-18T06:22:46.569Z,1.19
2022-11-18T06:23:46.867Z,1.19
2022-11-18T06:24:48.930Z,1.16
2022-11-18T06:25:50.915Z,1.10
2022-11-18T06:26:53.177Z,1.10
2022-11-18T06:27:58.616Z,1.11
2022-11-18T06:29:00.579Z,1.14
2022-11-18T06:30:03.323Z,1.13
2022-11-18T06:31:05.255Z,1.17
2022-11-18T06:32:07.256Z,1.14
2022-11-18T06:33:08.887Z,1.11
2022-11-18T06:34:11.040Z,1.11
2022-11-18T06:35:13.050Z,1.05
2022-11-18T06:36:14.873Z,1.00
2022-11-18T06:37:19.400Z,1.02
2022-11-18T06:38:25.080Z,1.01
2022-11-18T06:39:27.400Z,1.05
2022-11-18T06:40:34.487Z,0.99
2022-11-18T06:41:35.024Z,0.99
2022-11-18T06:42:37.310Z,0.97
2022-11-18T06:43:39.084Z,0.99
2022-11-18T06:44:41.302Z,1.02
2022-11-18T06:45:43.044Z,1.00
2022-11-18T06:46:45.372Z,1.03
2022-11-18T06:47:47.133Z,1.07
2022-11-18T06:48:50.570Z,1.09
2022-11-18T06:49:53.207Z,1.03
2022-11-18T06:50:54.978Z,1.00
2022-11-18T06:51:56.813Z,0.84
2022-11-18T06:53:02.052Z,0.83
2022-11-18T06:54:10.225Z,0.86
2022-11-18T06:55:08.719Z,0.82
2022-11-18T06:56:13.651Z,0.81
2022-11-18T06:57:15.711Z,0.78
2022-11-18T06:58:17.503Z,0.77
2022-11-18T06:59:19.613Z,0.77
2022-11-18T07:00:22.731Z,0.79
2022-11-18T07:01:27.367Z,0.82
2022-11-18T07:02:29.399Z,0.84
2022-11-18T07:03:31.452Z,0.76
2022-11-18T07:04:33.371Z,0.58
2022-11-18T07:05:35.560Z,0.53
2022-11-18T07:06:37.968Z,0.53
2022-11-18T07:07:42.258Z,0.54
2022-11-18T07:08:44.815Z,0.57
2022-11-18T07:09:46.743Z,0.59
2022-11-18T07:10:54.636Z,0.67
2022-11-18T07:11:56.640Z,0.67
2022-11-18T07:12:58.453Z,0.72
2022-11-18T07:14:00.459Z,0.77
2022-11-18T07:15:02.490Z,0.83
2022-11-18T07:16:10.804Z,0.84
2022-11-18T07:17:13.439Z,0.93
2022-11-18T07:18:15.108Z,1.01
2022-11-18T07:19:17.043Z,1.04
2022-11-18T07:20:19.619Z,1.08
2022-11-18T07:21:24.126Z,1.14
2022-11-18T07:22:25.871Z,1.13
2022-11-18T07:23:28.815Z,0.98
2022-11-18T07:24:30.828Z,1.04
2022-11-18T07:25:32.459Z,1.02
2022-11-18T07:26:35.498Z,1.01
2022-11-18T07:27:37.690Z,0.98
2022-11-18T07:28:39.969Z,0.97
2022-11-18T07:29:41.868Z,0.95
2022-11-18T07:30:43.683Z,0.95
2022-11-18T07:31:45.502Z,0.97
2022-11-18T07:32:47.118Z,0.98
2022-11-18T07:33:49.271Z,0.86
2022-11-18T07:34:51.051Z,0.87
2022-11-18T07:35:52.697Z,0.82
2022-11-18T07:36:55.578Z,0.86
2022-11-18T07:37:57.318Z,0.88
2022-11-18T07:39:00.230Z,0.86
2022-11-18T07:40:02.859Z,0.78
2022-11-18T07:41:26.491Z,0.68
2022-11-18T07:42:28.246Z,0.52
2022-11-18T07:43:30.666Z,0.42
2022-11-18T07:44:33.705Z,0.42
2022-11-18T07:45:40.445Z,0.42
2022-11-18T07:46:42.625Z,0.42
2022-11-18T07:47:44.700Z,0.46
2022-11-18T07:48:48.954Z,0.50
2022-11-18T07:49:50.760Z,0.44
2022-11-18T07:50:52.522Z,0.38
2022-11-18T07:51:54.476Z,0.29
2022-11-18T07:52:57.276Z,0.27
2022-11-18T07:53:59.274Z,0.28
2022-11-18T07:55:00.985Z,0.31
2022-11-18T07:56:04.622Z,0.35
2022-11-18T07:57:06.969Z,0.38
2022-11-18T07:58:08.771Z,0.39
2022-11-18T07:59:10.876Z,0.39
2022-11-18T08:00:13.876Z,0.42
2022-11-18T08:01:18.698Z,0.48
2022-11-18T08:02:21.200Z,0.42
2022-11-18T08:03:27.457Z,0.40
2022-11-18T08:04:30.526Z,0.34
2022-11-18T08:05:32.285Z,0.42
2022-11-18T08:06:35.850Z,0.44
2022-11-18T08:07:38.107Z,0.49
2022-11-18T08:08:41.291Z,0.51
2022-11-18T08:09:43.573Z,0.62
2022-11-18T08:10:45.850Z,0.75
2022-11-18T08:11:47.647Z,0.83
2022-11-18T08:12:49.983Z,0.95
2022-11-18T08:13:51.993Z,1.04
2022-11-18T08:14:56.161Z,1.10
2022-11-18T08:15:59.077Z,1.18
2022-11-18T08:17:02.115Z,1.27
2022-11-18T08:18:08.436Z,1.36
2022-11-18T08:19:08.450Z,1.37
2022-11-18T08:20:12.148Z,1.43
2022-11-18T08:22:31.907Z,1.69
2022-11-18T08:23:37.495Z,1.58
2022-11-18T08:24:37.616Z,1.59
2022-11-18T08:25:40.915Z,1.63
2022-11-18T08:26:42.861Z,1.70
2022-11-18T08:27:44.490Z,1.71
2022-11-18T08:28:47.390Z,1.72
2022-11-18T08:29:49.619Z,1.70
2022-11-18T08:30:52.137Z,1.70
2022-11-18T08:31:54.013Z,1.68
2022-11-18T08:32:55.740Z,1.66
2022-11-18T08:34:00.153Z,1.63
2022-11-18T08:35:39.895Z,1.68
2022-11-18T08:37:09.362Z,1.64
2022-11-18T08:38:11.937Z,1.59
2022-11-18T08:39:18.477Z,1.59
2022-11-18T08:40:21.840Z,1.58
2022-11-18T08:41:35.867Z,1.65
2022-11-18T08:42:37.835Z,1.68
2022-11-18T08:43:39.647Z,1.71
2022-11-18T08:44:41.388Z,1.68
2022-11-18T08:45:43.117Z,1.63
2022-11-18T08:46:45.705Z,1.66
2022-11-18T08:47:47.763Z,1.63
2022-11-18T08:48:49.496Z,1.67
2022-11-18T08:49:51.933Z,1.68
2022-11-18T08:50:54.751Z,1.75
2022-11-18T08:51:56.530Z,1.55
2022-11-18T08:52:58.274Z,1.42
2022-11-18T08:53:59.973Z,1.43
2022-11-18T08:55:02.495Z,1.38
2022-11-18T08:56:04.835Z,1.47
2022-11-18T08:57:06.642Z,1.50
2022-11-18T08:58:08.484Z,1.50
2022-11-18T08:59:10.421Z,1.58
2022-11-18T09:00:14.258Z,1.60
2022-11-18T09:01:16.927Z,1.59
2022-11-18T09:02:22.236Z,1.62
2022-11-18T09:03:25.195Z,1.62
2022-11-18T09:04:27.379Z,1.42
2022-11-18T09:05:29.330Z,1.33
2022-11-18T09:06:31.123Z,1.36
2022-11-18T09:07:33.165Z,1.39
2022-11-18T09:08:34.899Z,1.38
2022-11-18T09:09:37.675Z,1.48
2022-11-18T09:10:40.131Z,1.41
2022-11-18T09:11:41.913Z,1.40
2022-11-18T09:12:44.646Z,1.43
2022-11-18T09:14:25.957Z,1.50
2022-11-18T09:15:13.570Z,1.50
2022-11-18T09:15:58.061Z,1.61
2022-11-18T09:17:00.902Z,1.57
2022-11-18T09:18:03.629Z,1.57
2022-11-18T09:19:31.590Z,1.54
2022-11-18T09:20:10.939Z,1.38
2022-11-18T09:21:12.805Z,1.37
2022-11-18T09:22:14.716Z,1.38
2022-11-18T09:23:16.465Z,1.39
2022-11-18T09:24:19.817Z,1.30
2022-11-18T09:25:22.101Z,1.28
2022-11-18T09:26:24.018Z,1.30
2022-11-18T09:27:25.769Z,1.34
2022-11-18T09:28:28.692Z,1.36
2022-11-18T09:29:31.295Z,1.29
2022-11-18T09:30:33.673Z,1.19
2022-11-18T09:31:35.496Z,1.15
2022-11-18T09:32:37.308Z,1.07
2022-11-18T09:33:39.844Z,1.05
2022-11-18T09:34:41.612Z,1.02
2022-11-18T09:35:44.256Z,0.95
2022-11-18T09:36:46.245Z,0.81
2022-11-18T09:37:48.826Z,0.81
2022-11-18T09:38:53.391Z,0.78
2022-11-18T09:39:56.118Z,0.81
2022-11-18T09:41:10.673Z,0.82
2022-11-18T09:42:51.808Z,0.87
2022-11-18T09:44:19.363Z,0.87
2022-11-18T09:45:37.244Z,0.88
2022-11-18T09:46:54.836Z,0.63
2022-11-18T09:48:00.221Z,0.63
2022-11-18T09:49:06.879Z,0.59
2022-11-18T09:50:47.300Z,0.61
2022-11-18T09:51:19.410Z,0.63
2022-11-18T09:52:32.768Z,0.68
2022-11-18T09:53:32.281Z,0.66
2022-11-18T09:54:36.077Z,0.69
2022-11-18T09:55:39.042Z,0.63
2022-11-18T09:56:41.629Z,0.65
2022-11-18T09:57:52.946Z,0.60
2022-11-18T09:58:56.052Z,0.60
2022-11-18T10:00:01.088Z,0.60
2022-11-18T10:01:05.991Z,0.57
2022-11-18T10:02:27.032Z,0.58
2022-11-18T10:03:31.380Z,0.63
2022-11-18T10:04:33.802Z,0.61
2022-11-18T10:05:55.110Z,0.64
2022-11-18T10:06:58.174Z,0.60
2022-11-18T13:03:05.651Z,-0.69
2022-11-18T13:04:17.383Z,-0.78
2022-11-18T13:05:21.977Z,-0.78
2022-11-18T13:06:29.949Z,-0.74
2022-11-18T13:08:54.691Z,-0.45
2022-11-18T13:09:58.125Z,-0.45
2022-11-18T13:11:15.614Z,-0.36
2022-11-18T13:12:18.811Z,-0.29
2022-11-18T13:13:30.508Z,-0.24
2022-11-18T13:14:35.544Z,-0.11
2022-11-18T13:15:42.177Z,0.03
2022-11-18T13:16:44.316Z,-0.01
2022-11-18T13:17:46.067Z,0.07
2022-11-18T13:18:50.690Z,0.07
2022-11-18T13:19:57.410Z,0.11
2022-11-18T13:21:00.730Z,0.10
2022-11-18T13:22:03.205Z,0.11
2022-11-18T13:23:11.646Z,0.15
2022-11-18T13:24:20.157Z,0.22
2022-11-18T13:25:24.704Z,0.26
2022-11-18T13:26:33.403Z,0.30
2022-11-18T13:27:50.868Z,0.41
2022-11-18T13:28:59.287Z,0.46
2022-11-18T13:30:04.846Z,0.51
2022-11-18T13:31:23.880Z,0.48
2022-11-18T13:32:40.231Z,0.57
2022-11-18T13:33:38.603Z,0.59
2022-11-18T13:34:44.326Z,0.58
2022-11-18T13:35:46.298Z,0.65
2022-11-18T13:36:50.522Z,0.68
2022-11-18T13:37:55.542Z,0.73
2022-11-18T13:39:00.824Z,0.72
2022-11-18T13:40:04.776Z,0.82
2022-11-18T13:41:10.303Z,0.88
2022-11-18T13:42:21.352Z,0.84
2022-11-18T13:43:26.284Z,0.76
2022-11-18T13:44:31.941Z,0.74
2022-11-18T13:45:34.793Z,0.69
2022-11-18T13:46:39.865Z,0.64
2022-11-18T13:47:55.594Z,0.63
2022-11-18T13:48:58.939Z,0.68
2022-11-18T13:50:16.861Z,0.60
2022-11-18T13:51:19.489Z,0.43
2022-11-18T13:52:39.976Z,0.38
2022-11-18T13:53:43.187Z,0.24
2022-11-18T13:54:46.205Z,0.26
2022-11-18T13:55:51.539Z,0.21
2022-11-18T13:56:54.185Z,0.23
2022-11-18T13:58:06.320Z,0.20
2022-11-18T13:59:18.505Z,0.15
2022-11-18T14:00:23.971Z,0.20
2022-11-18T14:01:29.582Z,0.24
2022-11-18T14:02:32.020Z,0.24
2022-11-18T14:03:49.923Z,0.28
2022-11-18T14:04:58.558Z,0.30
2022-11-18T14:06:01.131Z,0.22
2022-11-18T14:07:26.713Z,0.27
2022-11-18T14:08:36.222Z,0.31
2022-11-18T14:09:43.173Z,0.44
2022-11-18T14:10:45.531Z,0.53
2022-11-18T14:12:15.413Z,0.57
2022-11-18T14:13:30.327Z,0.67
2022-11-18T14:14:38.404Z,0.69
2022-11-18T14:15:44.329Z,0.60
2022-11-18T14:16:47.403Z,0.43
2022-11-18T14:17:56.194Z,0.28
2022-11-18T14:18:58.646Z,0.28
2022-11-18T14:20:05.896Z,0.28
2022-11-18T14:21:11.011Z,0.21
2022-11-18T14:22:16.670Z,0.16
2022-11-18T14:23:22.573Z,0.07
2022-11-18T14:24:26.953Z,0.17
2022-11-18T14:25:34.708Z,0.20
2022-11-18T14:26:38.055Z,0.26
2022-11-18T14:27:49.255Z,0.18
2022-11-18T14:28:56.709Z,0.17
2022-11-18T14:29:58.670Z,0.29
2022-11-18T14:31:04.514Z,0.41
2022-11-18T14:32:16.657Z,0.50
2022-11-18T14:33:23.273Z,0.65
2022-11-18T14:39:56.651Z,0.40
2022-11-18T14:41:01.088Z,0.29
2022-11-18T14:42:03.170Z,0.30
2022-11-18T14:43:05.276Z,0.35
2022-11-18T14:44:07.941Z,0.30
2022-11-18T14:45:12.280Z,0.23
2022-11-18T14:46:19.578Z,0.30
2022-11-18T14:47:27.479Z,0.30
2022-11-18T14:48:32.591Z,0.39
2022-11-18T14:49:36.180Z,0.51
2022-11-18T14:50:38.295Z,0.54
2022-11-18T14:51:40.243Z,0.61
2022-11-18T14:52:41.965Z,0.68
2022-11-18T14:53:43.683Z,0.74
2022-11-18T14:54:46.330Z,0.85
2022-11-18T14:55:51.422Z,0.93
2022-11-18T14:56:59.763Z,0.99
2022-11-18T14:58:01.697Z,1.07
2022-11-18T14:59:03.850Z,1.10
2022-11-18T15:00:09.880Z,1.15
2022-11-18T15:01:13.262Z,1.20
2022-11-18T15:02:16.841Z,1.33
2022-11-18T15:03:18.940Z,1.42
2022-11-18T15:04:21.457Z,1.39
2022-11-18T15:05:23.532Z,1.43
2022-11-18T15:06:26.437Z,1.38
2022-11-18T15:07:28.509Z,1.25
2022-11-18T15:08:30.871Z,1.23
2022-11-18T15:09:32.513Z,1.23
2022-11-18T15:10:37.102Z,1.26
2022-11-18T15:11:39.290Z,1.22
2022-11-18T15:12:42.015Z,1.16
2022-11-18T15:13:45.868Z,1.10
2022-11-18T15:14:47.803Z,1.04
2022-11-18T15:15:50.058Z,0.78
2022-11-18T15:16:51.943Z,0.80
2022-11-18T15:17:54.198Z,0.86
2022-11-18T15:19:00.351Z,0.92
2022-11-18T15:20:03.607Z,1.01
2022-11-18T15:21:05.932Z,0.91
2022-11-18T15:22:08.051Z,0.99
2022-11-18T15:23:09.673Z,0.93
2022-11-18T15:24:11.529Z,0.91
2022-11-18T15:25:13.438Z,0.97
2022-11-18T15:26:28.019Z,1.01
2022-11-18T15:27:29.847Z,0.99
2022-11-18T15:28:31.558Z,0.91
2022-11-18T15:29:33.172Z,0.90
2022-11-18T15:30:35.499Z,0.96
2022-11-18T15:31:37.280Z,0.99
2022-11-18T15:32:39.027Z,1.08
2022-11-18T15:33:40.861Z,1.16
2022-11-18T15:34:42.734Z,1.18
2022-11-18T15:35:45.885Z,1.22
2022-11-18T15:36:51.705Z,1.18
2022-11-18T15:37:53.998Z,1.18
2022-11-18T15:38:55.795Z,1.22
2022-11-18T15:39:58.658Z,1.27
2022-11-18T15:41:00.740Z,1.28
2022-11-18T15:42:02.605Z,1.33
2022-11-18T15:43:06.924Z,1.38
2022-11-18T15:44:10.040Z,1.36
2022-11-18T15:45:12.133Z,1.35
2022-11-18T15:46:15.723Z,1.42
2022-11-18T15:47:17.662Z,1.49
2022-11-18T15:48:20.052Z,1.49
2022-11-18T15:49:22.213Z,1.53
2022-11-18T15:50:24.865Z,1.53
2022-11-18T15:51:29.616Z,1.51
2022-11-18T15:52:31.492Z,1.52
2022-11-18T15:53:33.442Z,1.53
2022-11-18T15:54:35.798Z,1.56
2022-11-18T15:55:38.515Z,1.59
2022-11-18T15:56:41.674Z,1.66
2022-11-18T15:57:44.810Z,1.71
2022-11-18T15:59:00.087Z,1.77
2022-11-18T16:00:05.395Z,1.83
2022-11-18T16:01:09.626Z,1.89
2022-11-18T16:02:11.672Z,1.96
2022-11-18T16:03:14.352Z,1.92
2022-11-18T16:04:18.908Z,1.95
2022-11-18T16:05:21.063Z,1.98
2022-11-18T16:06:23.881Z,1.82
2022-11-18T16:07:25.839Z,1.77
2022-11-18T16:08:29.350Z,1.74
2022-11-18T16:09:32.294Z,1.77
2022-11-18T16:10:34.243Z,1.83
2022-11-18T16:11:37.050Z,1.89
2022-11-18T16:12:40.883Z,2.01
2022-11-18T16:13:43.900Z,2.06
2022-11-18T16:14:45.730Z,2.08
2022-11-18T16:15:47.589Z,2.11
2022-11-18T16:16:52.116Z,2.17
2022-11-18T16:17:55.371Z,2.17
2022-11-18T16:18:59.493Z,2.18
2022-11-18T16:20:01.350Z,1.98
2022-11-18T16:21:03.308Z,1.95
2022-11-18T16:22:05.524Z,1.95
2022-11-18T16:23:08.432Z,1.80
2022-11-18T16:24:12.808Z,1.55
2022-11-18T16:25:14.757Z,1.60
2022-11-18T16:26:17.534Z,1.64
2022-11-18T16:27:20.880Z,1.67
2022-11-18T16:28:23.276Z,1.72
2022-11-18T16:29:25.576Z,1.58
2022-11-18T16:30:28.106Z,1.65
2022-11-18T16:31:30.033Z,1.64
2022-11-18T16:32:33.985Z,1.61
2022-11-18T16:33:36.989Z,1.57
2022-11-18T16:34:39.835Z,1.57
2022-11-18T16:35:48.625Z,1.59
2022-11-18T16:36:53.939Z,1.66
2022-11-18T16:37:55.905Z,1.74
2022-11-18T16:38:57.725Z,1.84
2022-11-18T16:40:00.256Z,1.91
2022-11-18T16:41:02.022Z,1.97
2022-11-18T16:42:08.719Z,2.02
2022-11-18T16:43:07.859Z,2.02
2022-11-18T16:44:16.686Z,2.05
2022-11-18T16:45:19.803Z,1.98
2022-11-18T16:46:22.186Z,1.86
2022-11-18T16:47:24.531Z,1.59
2022-11-18T16:48:28.394Z,1.40
2022-11-18T16:49:30.520Z,1.38
2022-11-18T16:50:32.540Z,1.32
2022-11-18T16:51:35.113Z,1.35
2022-11-18T16:52:38.235Z,1.47
2022-11-18T16:53:41.880Z,1.56
2022-11-18T16:54:46.028Z,1.54
2022-11-18T16:55:47.551Z,1.61
2022-11-18T16:56:52.092Z,1.61
2022-11-18T16:57:53.823Z,1.38
2022-11-18T16:58:58.821Z,1.25
2022-11-18T17:00:00.801Z,1.25
2022-11-18T17:01:19.614Z,1.29
2022-11-18T17:02:14.385Z,1.32
2022-11-18T17:03:16.270Z,1.40
2022-11-18T17:04:20.154Z,1.49
2022-11-18T17:05:21.942Z,1.59
2022-11-18T17:06:24.450Z,1.53
2022-11-18T17:07:27.328Z,1.55
2022-11-18T17:08:34.838Z,1.60
2022-11-18T17:09:36.800Z,1.52
2022-11-18T17:10:40.662Z,1.57
2022-11-18T17:11:42.784Z,1.61
2022-11-18T17:12:47.628Z,1.65
2022-11-18T17:13:53.348Z,1.67
2022-11-18T17:14:53.802Z,1.68
2022-11-18T17:15:55.543Z,1.58
2022-11-18T17:16:59.992Z,1.60
2022-11-18T17:18:02.017Z,1.49
2022-11-18T17:19:17.276Z,1.49
2022-11-18T17:20:12.868Z,1.52
2022-11-18T17:21:17.795Z,1.62
2022-11-18T17:22:20.090Z,1.69
2022-11-18T17:23:21.964Z,1.75
2022-11-18T17:24:24.309Z,1.77
2022-11-18T17:25:26.207Z,1.85
2022-11-18T17:26:28.618Z,1.93
2022-11-18T17:27:30.452Z,1.97
2022-11-18T17:28:34.374Z,2.01
2022-11-18T17:29:36.198Z,2.00
2022-11-18T17:30:37.921Z,1.78
2022-11-18T17:31:41.645Z,1.84
2022-11-18T17:32:44.529Z,1.88
2022-11-18T17:33:48.219Z,1.82
2022-11-18T17:34:50.998Z,1.83
2022-11-18T17:36:06.039Z,1.83
2022-11-18T17:37:08.169Z,1.88
2022-11-18T17:38:10.581Z,1.48
2022-11-18T17:39:16.388Z,1.42
2022-11-18T17:40:19.722Z,1.35
2022-11-18T17:41:24.881Z,1.23